• Join FlightAware (Why Join?)
  • Login
  • US Flag 
11:00PM EDT


 

Airport Tracker/Info


-or-


 

Live Flight TrackerFlight Track Log ✈ AAR236 ✈ 06-May-2013 ✈ RKSI / ICN - KORD

Flight Track Log - Related Links

Times and Time Zones

All times are in EDT time to prevent confusion due to time zone crossing. See the AAR236 flight status page for this flight to view local times or setup timezone preferences in your user account.

Time Position Orientation Groundspeed Altitude Reporting Facility
EDT Latitude Longitude Course Direction KTS MPH feet Rate Location/Type
10:29PM 37.5330 126.3950 325° Northwest 173 199 3,200  Level FlightAware
10:29PM 37.5490 126.3800 323° Northwest 173 199 3,200 1,800 Level FlightAware
10:32PM 37.7945 126.5508 29° Northeast  Level FlightAware Approximate
10:32PM 37.5340 126.1900 29° Northeast 295 339 8,600  Level FlightAware
10:32PM 37.4990 126.2000 167° South 300 345 9,500 1,920 Climbing FlightAware
10:32PM 37.4830 126.2170 140° Southeast 302 348 9,900 1,380 Climbing FlightAware
10:33PM 37.4730 126.2410 118° Southeast 308 354 10,200 1,080 Climbing FlightAware
10:33PM 37.4590 126.3160 103° East 346 398 10,900 1,320 Climbing FlightAware
10:34PM 37.4370 126.4270 104° East 377 434 12,300 1,800 Climbing FlightAware
10:35PM 37.4200 126.5140 104° East 386 444 13,800 2,100 Climbing FlightAware
10:35PM 37.4020 126.5980 105° East 395 455 15,100 1,800 Climbing FlightAware
10:36PM 37.3810 126.7050 104° East 410 472 16,400 1,620 Climbing FlightAware
10:37PM 37.3600 126.8060 105° East 420 483 17,600 1,620 Climbing FlightAware
10:38PM 37.3410 126.8950 105° East 427 491 18,600 1,560 Climbing FlightAware
10:39PM 37.3370 127.0470 92° East 428 493 20,100 1,500 Climbing FlightAware
10:39PM 37.3800 127.1440 61° Northeast 425 489 21,300 1,620 Climbing FlightAware
10:40PM 37.4190 127.2300 60° Northeast 427 491 22,400 1,800 Climbing FlightAware
10:41PM 37.4640 127.3280 60° Northeast 427 491 23,900 1,680 Climbing FlightAware
10:41PM 37.4950 127.4250 68° East 445 512 24,800 1,380 Climbing FlightAware
10:42PM 37.5170 127.5640 79° East 451 519 26,100 1,200 Climbing FlightAware
10:44PM 37.5570 127.8180 79° East 462 532 28,000 1,080 Climbing FlightAware
10:45PM 37.5730 127.9200 79° East 466 536 28,700 900 Climbing FlightAware
10:45PM 37.5930 128.0460 79° East 474 545 29,300 720 Climbing FlightAware
10:46PM 37.6170 128.1990 79° East 480 552 30,000 360 Climbing FlightAware
10:47PM 37.6340 128.3140 79° East 480 552 30,000  Level FlightAware
10:48PM 37.6520 128.4310 79° East 480 552 30,000  Level FlightAware
10:49PM 37.6670 128.5250 79° East 480 552 30,000  Level FlightAware
10:49PM 37.6810 128.6180 79° East 480 552 30,000 1,920 Level FlightAware
10:50PM 37.6630 128.8340 96° East 525 604 32,800 2,160 Climbing FlightAware
10:51PM 37.6220 128.9210 121° Southeast 527 606 32,900 60 Climbing FlightAware
10:51PM 37.5810 129.0120 120° Southeast 527 606 32,900 60 Level FlightAware
10:52PM 37.6510 128.8580 300° West 33,000 60 Climbing FlightAware
10:52PM 37.4900 129.1920 121° Southeast 533 613 33,000  Level FlightAware
10:53PM 37.4340 129.3080 121° Southeast 534 615 33,000  Level FlightAware
10:54PM 37.3730 129.4340 121° Southeast 535 616 33,000  Level FlightAware
10:55PM 37.3040 129.5750 122° Southeast 535 616 33,000  Level FlightAware
10:55PM 37.2510 129.6830 122° Southeast 536 617 33,000  Level FlightAware
10:56PM 37.2060 129.7770 121° Southeast 536 617 33,000  Level FlightAware
10:57PM 37.1500 129.8890 122° Southeast 536 617 33,000  Level FlightAware
10:57PM 37.0950 130.0040 121° Southeast 536 617 33,000  Level FlightAware
10:58PM 37.0400 130.1110 123° Southeast 535 616 33,000  Level FlightAware
10:59PM 36.9800 130.2340 121° Southeast 535 616 33,000  Level FlightAware
11:00PM 36.9210 130.3510 122° Southeast 537 618 33,000  Level FlightAware
11:00PM 36.8840 130.4230 123° Southeast 537 618 33,000  Level FlightAware
11:01PM 36.8190 130.5540 122° Southeast 536 617 33,000  Level FlightAware
11:02PM 36.7590 130.6730 122° Southeast 536 617 33,000  Level FlightAware
11:02PM 36.7010 130.7870 122° Southeast 537 618 33,000  Level FlightAware
11:03PM 36.6540 130.8800 122° Southeast 538 619 33,000  Level FlightAware
11:04PM 36.5900 131.0050 122° Southeast 539 620 33,000  Level FlightAware
11:05PM 36.5290 131.1260 122° Southeast 540 621 33,000  Level FlightAware
11:05PM 36.4760 131.2280 123° Southeast 541 623 33,000  Level FlightAware
11:06PM 36.4220 131.3340 122° Southeast 540 621 33,000  Level FlightAware
11:07PM 36.3780 131.4510 115° Southeast 532 612 33,000  Level FlightAware
11:07PM 36.3690 131.5580 96° East 525 604 33,000  Level FlightAware
11:08PM 36.3640 131.7140 92° East 525 604 33,000  Level FlightAware
11:09PM 36.3610 131.8320 92° East 525 604 33,000  Level FlightAware
11:09PM 36.3560 131.9710 93° East 527 606 33,000  Level FlightAware
11:10PM 36.3520 132.0930 92° East 528 608 33,000  Level FlightAware
11:11PM 36.3480 132.2140 92° East 530 610 33,000  Level FlightAware
11:12PM 36.3420 132.3510 93° East 531 611 33,000  Level FlightAware
11:12PM 36.3380 132.4730 92° East 532 612 33,000  Level FlightAware
11:13PM 36.3340 132.5780 93° East 533 613 33,000  Level FlightAware
11:14PM 36.3280 132.7340 93° East 534 615 33,000  Level FlightAware
11:14PM 36.3230 132.8510 93° East 536 617 33,000  Level FlightAware
11:15PM 36.3170 132.9830 93° East 538 619 33,000  Level FlightAware
11:16PM 36.3120 133.1020 93° East 539 620 33,000  Level FlightAware
11:16PM 36.3050 133.2540 93° East 538 619 33,000  Level FlightAware
11:17PM 36.3000 133.3730 93° East 539 620 33,000  Level FlightAware
11:18PM 36.2950 133.4890 93° East 540 621 33,000  Level FlightAware
11:19PM 36.2870 133.6390 94° East 542 624 33,000  Level FlightAware
11:19PM 36.2820 133.7600 93° East 543 625 33,000  Level FlightAware
11:20PM 36.2750 133.8980 94° East 545 627 33,000  Level FlightAware
11:21PM 36.2680 134.0300 94° East 546 628 33,000  Level FlightAware
11:21PM 36.2620 134.1510 93° East 547 629 33,000  Level FlightAware
11:22PM 36.2550 134.2910 94° East 548 631 33,000  Level FlightAware
11:23PM 36.2480 134.4160 94° East 550 633 33,000  Level FlightAware
11:23PM 36.2490 134.5610 89° East 544 626 33,000  Level FlightAware
11:24PM 36.2580 134.6750 84° East 543 625 33,000  Level FlightAware
11:25PM 36.2680 134.7970 84° East 543 625 33,000  Level FlightAware
11:26PM 36.2820 134.9460 83° East 538 619 33,000  Level FlightAware
11:26PM 36.2900 135.0500 85° East 534 615 33,000  Level FlightAware
11:27PM 36.3030 135.1980 84° East 530 610 33,000  Level FlightAware
11:28PM 36.3130 135.3220 84° East 526 605 33,000  Level FlightAware
11:28PM 36.3240 135.4570 84° East 523 602 33,000  Level FlightAware
11:29PM 36.3330 135.5740 85° East 521 600 33,000  Level FlightAware
11:30PM 36.3430 135.6950 84° East 520 598 33,000  Level FlightAware
11:30PM 36.3520 135.8150 85° East 520 598 33,000  Level FlightAware
11:31PM 36.3620 135.9490 85° East 519 597 33,000  Level FlightAware
11:32PM 36.3710 136.0630 84° East 519 597 33,000  Level FlightAware
11:33PM 36.3810 136.1910 84° East 520 598 33,000  Level FlightAware
11:33PM 36.3900 136.3210 85° East 521 600 33,000  Level FlightAware
11:34PM 36.4010 136.4570 84° East 527 606 33,000  Level FlightAware
11:35PM 36.4140 136.5770 82° East 529 609 33,000  Level FlightAware
11:35PM 36.4270 136.6960 82° East 533 613 33,000  Level FlightAware
11:36PM 36.4410 136.8340 83° East 534 615 33,000  Level FlightAware
11:37PM 36.4530 136.9480 83° East 533 613 33,000  Level FlightAware
11:37PM 36.4670 137.0920 83° East 534 615 33,000  Level FlightAware
11:38PM 36.4790 137.2140 83° East 534 615 33,000  Level FlightAware
11:39PM 36.4920 137.3470 83° East 534 615 33,000  Level FlightAware
11:40PM 36.5040 137.4710 83° East 535 616 33,000  Level FlightAware
11:40PM 36.5150 137.5930 84° East 533 613 33,000  Level FlightAware
11:41PM 36.5280 137.7240 83° East 515 593 33,000  Level FlightAware
11:42PM 36.5390 137.8460 84° East 515 593 33,000  Level FlightAware
11:42PM 36.5500 137.9630 83° East 521 600 33,000  Level FlightAware
11:43PM 36.5620 138.0990 84° East 525 604 33,000  Level FlightAware
11:44PM 36.5730 138.2180 83° East 525 604 33,000  Level FlightAware
11:44PM 36.5850 138.3540 84° East 525 604 33,000  Level FlightAware
11:45PM 36.5960 138.4720 83° East 526 605 33,000  Level FlightAware
11:46PM 36.6060 138.5890 84° East 527 606 33,000  Level FlightAware
11:47PM 36.6180 138.7280 84° East 529 609 33,000  Level FlightAware
11:47PM 36.6280 138.8500 84° East 529 609 33,000  Level FlightAware
11:48PM 36.6390 138.9860 84° East 528 608 33,000  Level FlightAware
11:49PM 36.6490 139.1030 84° East 531 611 33,000  Level FlightAware
11:49PM 36.6590 139.2230 84° East 531 611 33,000  Level FlightAware
11:52PM 36.9019 139.4204 33° Northeast  Level Estimated
11:53PM 37.0113 139.5099 33° Northeast  Level Estimated
11:54PM 37.1207 139.5997 33° Northeast  Level Estimated
11:54PM 36.7220 140.0380 33° Northeast 527 606 33,000  Level FlightAware
11:54PM 36.7300 140.1530 85° East 526 605 33,000  Level FlightAware
11:55PM 36.7390 140.2750 85° East 526 605 33,000  Level FlightAware
11:56PM 36.7640 140.4020 76° East 517 595 33,000  Level FlightAware
11:57PM 36.8030 140.5170 67° East 512 589 33,000  Level FlightAware
11:57PM 36.8470 140.6390 66° East 512 589 33,000  Level FlightAware
11:58PM 36.8860 140.7480 66° East 507 583 33,000  Level FlightAware
11:59PM 36.9240 140.8540 66° East 506 582 33,000  Level FlightAware
11:59PM 36.9670 140.9770 66° East 507 583 33,000  Level FlightAware
12:00AM 37.0050 141.0870 67° East 508 585 33,000  Level FlightAware
12:01AM 37.0420 141.1920 66° East 509 586 33,000  Level FlightAware
12:01AM 37.0850 141.3150 66° East 510 587 33,000  Level FlightAware
12:02AM 37.1230 141.4260 67° East 507 583 33,000  Level FlightAware
12:03AM 37.1650 141.5490 67° East 508 585 33,000  Level FlightAware
12:04AM 37.2030 141.6590 67° East 509 586 33,000  Level FlightAware
12:04AM 37.2390 141.7650 67° East 509 586 33,000  Level FlightAware
12:05AM 37.2830 141.8920 66° East 511 588 33,000  Level FlightAware
12:06AM 37.3200 142.0010 67° East 512 589 33,000  Level FlightAware
12:06AM 37.3520 142.0960 67° East 511 588 33,000  Level FlightAware
12:07AM 37.3980 142.2330 67° East 512 589 33,000  Level FlightAware
12:08AM 37.4350 142.3440 67° East 516 594 33,000  Level FlightAware
12:08AM 37.4760 142.4710 68° East 516 594 33,000  Level FlightAware
12:09AM 37.5160 142.5950 68° East 518 596 33,000  Level FlightAware
12:10AM 37.5510 142.7030 68° East 518 596 33,000  Level FlightAware
12:11AM 37.5930 142.8330 68° East 517 595 33,000  Level FlightAware
12:11AM 37.6270 142.9400 68° East 518 596 33,000  Level FlightAware
12:12AM 37.6650 143.0590 68° East 519 597 33,000  Level FlightAware
12:13AM 37.6940 143.1500 68° East 519 597 33,000  Level FlightAware
12:13AM 37.7250 143.2460 68° East 519 597 33,000  Level FlightAware
12:14AM 37.7630 143.3660 68° East 519 597 33,000  Level FlightAware
12:15AM 37.7930 143.4610 68° East 519 597 33,000  Level FlightAware
12:15AM 37.8240 143.5570 68° East 519 597 33,000  Level FlightAware
12:16AM 37.8540 143.6530 68° East 519 597 33,000  Level FlightAware
12:17AM 37.8850 143.7490 68° East 519 597 33,000  Level FlightAware
12:17AM 37.9160 143.8450 68° East 519 597 33,000  Level FlightAware
12:18AM 37.9540 143.9650 68° East 519 597 33,000  Level FlightAware
12:19AM 37.9840 144.0610 68° East 519 597 33,000  Level FlightAware
12:20AM 38.0150 144.1570 68° East 519 597 33,000  Level FlightAware
12:20AM 38.0460 144.2530 68° East 519 597 33,000  Level FlightAware
12:21AM 38.0760 144.3490 68° East 519 597 33,000  Level FlightAware
12:22AM 38.1140 144.4690 68° East 519 597 33,000  Level FlightAware
12:24AM 38.2951 144.6376 36° Northeast  Level Estimated
12:25AM 38.4005 144.7362 36° Northeast  Level Estimated
12:26AM 38.5059 144.8351 36° Northeast  Level Estimated
12:27AM 38.6111 144.9343 36° Northeast  Level Estimated
12:28AM 38.7163 145.0338 36° Northeast  Level Estimated
12:29AM 38.8213 145.1336 36° Northeast  Level Estimated
12:30AM 38.9263 145.2337 37° Northeast  Level Estimated
12:31AM 39.0312 145.3340 37° Northeast  Level Estimated
12:32AM 39.1360 145.4347 37° Northeast  Level Estimated
12:33AM 39.2407 145.5357 37° Northeast  Level Estimated
12:34AM 39.3454 145.6369 37° Northeast  Level Estimated
12:35AM 39.4499 145.7385 37° Northeast  Level Estimated
12:36AM 39.5544 145.8404 37° Northeast  Level Estimated
12:37AM 39.6588 145.9426 37° Northeast  Level Estimated
12:38AM 39.7630 146.0451 37° Northeast  Level Estimated
12:39AM 39.8672 146.1479 37° Northeast  Level Estimated
12:40AM 39.9713 146.2510 37° Northeast  Level Estimated
12:41AM 40.0753 146.3544 37° Northeast  Level Estimated
12:42AM 40.1793 146.4582 37° Northeast  Level Estimated
12:43AM 40.2831 146.5622 37° Northeast  Level Estimated
12:44AM 40.3868 146.6666 37° Northeast  Level Estimated
12:45AM 40.4905 146.7713 38° Northeast  Level Estimated
12:46AM 40.5940 146.8764 38° Northeast  Level Estimated
12:47AM 40.6974 146.9817 38° Northeast  Level Estimated
12:48AM 40.8008 147.0874 38° Northeast  Level Estimated
12:49AM 40.9040 147.1934 38° Northeast  Level Estimated
12:50AM 41.0072 147.2998 38° Northeast  Level Estimated
12:51AM 41.1103 147.4065 38° Northeast  Level Estimated
12:52AM 41.2132 147.5135 38° Northeast  Level Estimated
12:53AM 41.3161 147.6208 38° Northeast  Level Estimated
12:54AM 41.4188 147.7285 38° Northeast  Level Estimated
12:55AM 41.5215 147.8365 38° Northeast  Level Estimated
12:56AM 41.6241 147.9449 38° Northeast  Level Estimated
12:57AM 41.7265 148.0536 38° Northeast  Level Estimated
12:58AM 41.8289 148.1627 38° Northeast  Level Estimated
12:59AM 41.9311 148.2721 39° Northeast  Level Estimated
01:00AM 42.0333 148.3819 39° Northeast  Level Estimated
01:01AM 42.1353 148.4920 39° Northeast  Level Estimated
01:02AM 42.2372 148.6025 39° Northeast  Level Estimated
01:03AM 42.3391 148.7133 39° Northeast  Level Estimated
01:04AM 42.4408 148.8245 39° Northeast  Level Estimated
01:05AM 42.5424 148.9361 39° Northeast  Level Estimated
01:06AM 42.6439 149.0480 39° Northeast  Level Estimated
01:07AM 42.7453 149.1603 39° Northeast  Level Estimated
01:08AM 42.8466 149.2729 39° Northeast  Level Estimated
01:09AM 42.9478 149.3859 39° Northeast  Level Estimated
01:10AM 43.0488 149.4993 39° Northeast  Level Estimated
01:11AM 43.1498 149.6131 39° Northeast  Level Estimated
01:12AM 43.2506 149.7272 39° Northeast  Level Estimated
01:13AM 43.3513 149.8418 40° Northeast  Level Estimated
01:14AM 43.4519 149.9567 40° Northeast  Level Estimated
01:15AM 43.5524 150.0719 40° Northeast  Level Estimated
01:16AM 43.6528 150.1876 40° Northeast  Level Estimated
01:17AM 43.7531 150.3037 40° Northeast  Level Estimated
01:18AM 43.8532 150.4201 40° Northeast  Level Estimated
01:19AM 43.9532 150.5370 40° Northeast  Level Estimated
01:20AM 44.0531 150.6542 40° Northeast  Level Estimated
01:21AM 44.1529 150.7718 40° Northeast  Level Estimated
01:22AM 44.2526 150.8898 40° Northeast  Level Estimated
01:23AM 44.3521 151.0083 40° Northeast  Level Estimated
01:24AM 44.4515 151.1271 40° Northeast  Level Estimated
01:25AM 44.5508 151.2463 41° Northeast  Level Estimated
01:26AM 44.6500 151.3660 41° Northeast  Level Estimated
01:27AM 44.7490 151.4860 41° Northeast  Level Estimated
01:28AM 44.8480 151.6065 41° Northeast  Level Estimated
01:29AM 44.9468 151.7274 41° Northeast  Level Estimated
01:30AM 45.0454 151.8487 41° Northeast  Level Estimated
01:31AM 45.1440 151.9704 41° Northeast  Level Estimated
01:32AM 45.2424 152.0925 41° Northeast  Level Estimated
01:33AM 45.3406 152.2151 41° Northeast  Level Estimated
01:34AM 45.4388 152.3380 41° Northeast  Level Estimated
01:35AM 45.5368 152.4615 41° Northeast  Level Estimated
01:36AM 45.6347 152.5853 41° Northeast  Level Estimated
01:37AM 45.7324 152.7096 42° Northeast  Level Estimated
01:38AM 45.8300 152.8343 42° Northeast  Level Estimated
01:39AM 45.9275 152.9594 42° Northeast  Level Estimated
01:40AM 46.0248 153.0850 42° Northeast  Level Estimated
01:41AM 46.1220 153.2110 42° Northeast  Level Estimated
01:42AM 46.2191 153.3375 42° Northeast  Level Estimated
01:43AM 46.3160 153.4644 42° Northeast  Level Estimated
01:44AM 46.4128 153.5918 42° Northeast  Level Estimated
01:45AM 46.5094 153.7196 42° Northeast  Level Estimated
01:46AM 46.6059 153.8479 42° Northeast  Level Estimated
01:47AM 46.7022 153.9767 42° Northeast  Level Estimated
01:48AM 46.7984 154.1059 43° Northeast  Level Estimated
01:49AM 46.8945 154.2355 43° Northeast  Level Estimated
01:50AM 46.9904 154.3656 43° Northeast  Level Estimated
01:51AM 47.0862 154.4962 43° Northeast  Level Estimated
01:52AM 47.1818 154.6273 43° Northeast  Level Estimated
01:53AM 47.2772 154.7588 43° Northeast  Level Estimated
01:54AM 47.3726 154.8909 43° Northeast  Level Estimated
01:55AM 47.4677 155.0233 43° Northeast  Level Estimated
01:56AM 47.5627 155.1563 43° Northeast  Level Estimated
01:57AM 47.6576 155.2898 43° Northeast  Level Estimated
01:58AM 47.7523 155.4237 44° Northeast  Level Estimated
01:59AM 47.8468 155.5581 44° Northeast  Level Estimated
02:00AM 47.9412 155.6931 44° Northeast  Level Estimated
02:01AM 48.0354 155.8285 44° Northeast  Level Estimated
02:02AM 48.1295 155.9644 44° Northeast  Level Estimated
02:03AM 48.2234 156.1008 44° Northeast  Level Estimated
02:04AM 48.3171 156.2377 44° Northeast  Level Estimated
02:05AM 48.4107 156.3751 44° Northeast  Level Estimated
02:06AM 48.5041 156.5130 44° Northeast  Level Estimated
02:07AM 48.5974 156.6514 44° Northeast  Level Estimated
02:08AM 48.6905 156.7903 45° Northeast  Level Estimated
02:09AM 48.7834 156.9298 45° Northeast  Level Estimated
02:10AM 48.8761 157.0697 45° Northeast  Level Estimated
02:10AM 48.2833 160.6833 52° Northeast 500 575 35,000  Level Anchorage Center
02:11AM 48.9687 157.2102 45° Northeast  Level Estimated
02:12AM 49.0611 157.3512 45° Northeast  Level Estimated
02:13AM 49.1534 157.4928 45° Northeast  Level Estimated
02:14AM 49.2454 157.6348 45° Northeast  Level Estimated
02:15AM 49.3373 157.7774 45° Northeast  Level Estimated
02:16AM 48.7649 161.6357 53° Northeast 500 575 35,000  Level FlightAware Transoceanic
02:17AM 48.8444 161.7962 53° Northeast 500 575 35,000  Level FlightAware Transoceanic
02:18AM 48.9237 161.9572 53° Northeast 500 575 35,000  Level FlightAware Transoceanic
02:19AM 49.0027 162.1187 53° Northeast 500 575 35,000  Level FlightAware Transoceanic
02:19AM 49.0167 162.2500 53° Northeast 499 574 35,000  Level Anchorage Center
02:20AM 49.0816 162.2808 53° Northeast 500 575 35,000  Level FlightAware Transoceanic
02:21AM 49.1601 162.4433 54° Northeast 500 575 35,000  Level FlightAware Transoceanic
02:22AM 49.2385 162.6064 54° Northeast 500 575 35,000  Level FlightAware Transoceanic
02:23AM 49.3167 162.7700 54° Northeast 500 575 35,000  Level FlightAware Transoceanic
02:24AM 49.3946 162.9341 54° Northeast 500 575 35,000  Level FlightAware Transoceanic
02:25AM 49.4913 163.2346 54° Northeast 499 574 35,000  Level FlightAware Transoceanic
02:26AM 49.5695 163.4006 54° Northeast 499 574 35,000  Level FlightAware Transoceanic
02:27AM 49.6476 163.5670 54° Northeast 499 574 35,000  Level FlightAware Transoceanic
02:28AM 49.7254 163.7341 54° Northeast 499 574 35,000  Level FlightAware Transoceanic
02:29AM 49.8030 163.9016 54° Northeast 499 574 35,000  Level FlightAware Transoceanic
02:30AM 49.8803 164.0697 55° Northeast 499 574 35,000  Level FlightAware Transoceanic
02:31AM 49.9574 164.2383 55° Northeast 499 574 35,000  Level FlightAware Transoceanic
02:32AM 50.0342 164.4075 55° Northeast 499 574 35,000  Level FlightAware Transoceanic
02:33AM 50.1108 164.5772 55° Northeast 499 574 35,000  Level FlightAware Transoceanic
02:34AM 50.1871 164.7475 55° Northeast 499 574 35,000  Level FlightAware Transoceanic
02:35AM 50.2632 164.9183 55° Northeast 499 574 35,000  Level FlightAware Transoceanic
02:36AM 50.3390 165.0896 55° Northeast 499 574 35,000  Level FlightAware Transoceanic
02:37AM 50.4146 165.2615 55° Northeast 499 574 35,000  Level FlightAware Transoceanic
02:37AM 50.4000 165.5167 55° Northeast 487 560 35,000  Level Anchorage Center
02:38AM 50.4899 165.4339 56° Northeast 499 574 35,000  Level FlightAware Transoceanic
02:39AM 50.5650 165.6069 56° Northeast 499 574 35,000  Level FlightAware Transoceanic
02:40AM 50.6398 165.7805 56° Northeast 499 574 35,000  Level FlightAware Transoceanic
02:41AM 50.7144 165.9545 56° Northeast 499 574 35,000  Level FlightAware Transoceanic
02:42AM 50.7887 166.1292 56° Northeast 499 574 35,000  Level FlightAware Transoceanic
02:43AM 50.8627 166.3044 56° Northeast 499 574 35,000  Level FlightAware Transoceanic
02:44AM 50.8584 166.5503 55° Northeast 487 560 35,000  Level FlightAware Transoceanic
02:45AM 50.9339 166.7246 56° Northeast 487 560 35,000  Level FlightAware Transoceanic
02:46AM 51.0092 166.8994 56° Northeast 487 560 35,000  Level FlightAware Transoceanic
02:46AM 50.9833 166.9667 55° Northeast 483 556 35,000  Level Anchorage Center
02:47AM 51.0842 167.0748 56° Northeast 487 560 35,000  Level FlightAware Transoceanic
02:48AM 51.1589 167.2507 56° Northeast 487 560 35,000  Level FlightAware Transoceanic
02:49AM 51.2334 167.4272 56° Northeast 487 560 35,000  Level FlightAware Transoceanic
02:50AM 51.3076 167.6043 56° Northeast 487 560 35,000  Level FlightAware Transoceanic
02:51AM 51.3815 167.7820 56° Northeast 487 560 35,000  Level FlightAware Transoceanic
02:52AM 51.4332 168.0160 56° Northeast 483 556 35,000  Level FlightAware Transoceanic
02:53AM 51.5073 168.1929 56° Northeast 483 556 35,000  Level FlightAware Transoceanic
02:53AM 51.4833 168.3500 57° Northeast 480 552 35,000  Level Anchorage Center
02:54AM 51.5811 168.3704 56° Northeast 483 556 35,000  Level FlightAware Transoceanic
02:54AM 51.5500 168.5000 54° Northeast 490 564 35,000  Level Anchorage Center
02:55AM 51.6546 168.5484 56° Northeast 483 556 35,000  Level FlightAware Transoceanic
02:55AM 51.6167 168.7000 62° Northeast 480 552 35,000  Level Anchorage Center
02:56AM 51.7278 168.7270 57° Northeast 483 556 35,000  Level FlightAware Transoceanic
02:56AM 51.6667 168.8667 64° Northeast 470 541 35,000  Level Anchorage Center
02:57AM 51.8008 168.9062 57° Northeast 483 556 35,000  Level FlightAware Transoceanic
02:57AM 51.7333 169.0667 62° Northeast 470 541 35,000  Level Anchorage Center
02:58AM 51.8735 169.0860 57° Northeast 483 556 35,000  Level FlightAware Transoceanic
02:58AM 51.8000 169.2167 54° Northeast 470 541 35,000  Level Anchorage Center
02:59AM 51.8667 169.4167 62° Northeast 470 541 35,000 120 Level Anchorage Center
03:00AM 51.9167 169.5833 64° Northeast 460 529 35,300 480 Climbing Anchorage Center
03:01AM 52.0000 169.7833 56° Northeast 480 552 36,000 660 Climbing Anchorage Center
03:02AM 52.0667 169.9833 61° Northeast 480 552 36,700 480 Climbing Anchorage Center
03:03AM 52.1167 170.1500 64° Northeast 480 552 37,000 120 Climbing Anchorage Center
03:04AM 52.2000 170.3667 58° Northeast 480 552 37,000  Level Anchorage Center
03:05AM 52.2500 170.5167 61° Northeast 480 552 37,000  Level Anchorage Center
03:06AM 52.3333 170.7167 56° Northeast 480 552 37,000  Level Anchorage Center
03:07AM 52.4000 170.8667 54° Northeast 480 552 37,000  Level Anchorage Center
03:08AM 52.4833 171.0500 53° Northeast 470 541 37,000  Level Anchorage Center
03:09AM 52.5500 171.2167 57° Northeast 470 541 37,000  Level Anchorage Center
03:10AM 52.6333 171.4000 53° Northeast 470 541 37,000  Level Anchorage Center
03:11AM 52.7167 171.6000 55° Northeast 480 552 37,000  Level Anchorage Center
03:12AM 52.7833 171.7500 54° Northeast 480 552 37,000  Level Anchorage Center
03:13AM 52.8667 171.9500 55° Northeast 480 552 37,000  Level Anchorage Center
03:14AM 52.9333 172.1000 54° Northeast 470 541 37,000  Level Anchorage Center
03:15AM 53.0167 172.3000 55° Northeast 470 541 37,000  Level Anchorage Center
03:16AM 53.0833 172.4500 53° Northeast 480 552 37,000  Level Anchorage Center
03:17AM 53.1667 172.6500 55° Northeast 480 552 37,000  Level Anchorage Center
03:18AM 53.2333 172.8167 56° Northeast 480 552 37,000  Level Anchorage Center
03:19AM 53.3167 173.0167 55° Northeast 460 529 37,000  Level Anchorage Center
03:20AM 53.3833 173.1667 53° Northeast 480 552 37,000  Level Anchorage Center
03:21AM 53.4667 173.3667 55° Northeast 460 529 37,000  Level Anchorage Center
03:22AM 53.5333 173.5333 56° Northeast 490 564 37,000  Level Anchorage Center
03:23AM 53.6000 173.7333 61° Northeast 460 529 37,000  Level Anchorage Center
03:24AM 53.6833 173.9500 57° Northeast 480 552 37,000  Level Anchorage Center
03:25AM 53.7500 174.1167 56° Northeast 480 552 37,000  Level Anchorage Center
03:26AM 53.8167 174.3167 60° Northeast 470 541 37,000  Level Anchorage Center
03:27AM 53.8833 174.4667 53° Northeast 470 541 37,000  Level Anchorage Center
03:28AM 53.9500 174.6833 62° Northeast 480 552 37,000  Level Anchorage Center
03:29AM 54.0167 174.8500 56° Northeast 470 541 37,000  Level Anchorage Center
03:30AM 54.1000 175.0667 57° Northeast 480 552 37,000  Level Anchorage Center
03:31AM 54.1500 175.2333 63° Northeast 470 541 37,000  Level Anchorage Center
03:32AM 54.2333 175.4333 54° Northeast 470 541 37,000  Level Anchorage Center
03:33AM 54.2833 175.6167 65° Northeast 480 552 37,000  Level Anchorage Center
03:34AM 54.3667 175.8167 54° Northeast 480 552 37,000  Level Anchorage Center
03:35AM 54.4333 176.0333 62° Northeast 470 541 37,000  Level Anchorage Center
03:36AM 54.5000 176.2000 55° Northeast 470 541 37,000  Level Anchorage Center
03:37AM 54.5667 176.4167 62° Northeast 480 552 37,000  Level Anchorage Center
03:38AM 54.6333 176.5833 55° Northeast 470 541 37,000  Level Anchorage Center
03:39AM 54.7000 176.8000 62° Northeast 470 541 37,000  Level Anchorage Center
03:40AM 54.7667 176.9667 55° Northeast 470 541 37,000  Level Anchorage Center
03:41AM 54.8167 177.1500 65° Northeast 480 552 37,000  Level Anchorage Center
03:42AM 54.8833 177.3667 62° Northeast 470 541 37,000  Level Anchorage Center
03:43AM 54.9667 177.5833 56° Northeast 470 541 37,000  Level Anchorage Center
03:44AM 55.0333 177.8000 62° Northeast 470 541 37,000  Level Anchorage Center
03:45AM 55.0833 177.9667 62° Northeast 470 541 37,000  Level Anchorage Center
03:47AM 55.1684 178.2373 61° Northeast  Level FlightAware Approximate
03:48AM 55.3000 178.6167 61° Northeast 478 550 37,000  Level Anchorage Center
03:54AM 55.5707 179.5599 61° Northeast  Level FlightAware Approximate
03:55AM 55.6871 179.8879 62° Northeast 478 550 37,000  Level FlightAware Transoceanic
03:56AM 55.7503 -179.8978 62° Northeast 478 550 37,000  Level FlightAware Transoceanic
03:57AM 55.8131 -179.6828 63° Northeast 478 550 37,000  Level FlightAware Transoceanic
03:58AM 55.8756 -179.4671 63° Northeast 478 550 37,000  Level FlightAware Transoceanic
03:59AM 55.9377 -179.2507 63° Northeast 478 550 37,000  Level FlightAware Transoceanic
04:00AM 55.9994 -179.0336 63° Northeast 478 550 37,000  Level FlightAware Transoceanic
04:01AM 56.0608 -178.8158 63° Northeast 478 550 37,000  Level FlightAware Transoceanic
04:02AM 56.1217 -178.5974 64° Northeast 478 550 37,000  Level FlightAware Transoceanic
04:03AM 56.1823 -178.3782 64° Northeast 478 550 37,000  Level FlightAware Transoceanic
04:04AM 56.2424 -178.1584 64° Northeast 478 550 37,000  Level FlightAware Transoceanic
04:05AM 56.3022 -177.9378 64° Northeast 478 550 37,000  Level FlightAware Transoceanic
04:06AM 56.3616 -177.7166 64° Northeast 478 550 37,000  Level FlightAware Transoceanic
04:06AM 56.3500 -177.7667 64° Northeast 481 554 37,000  Level Anchorage Center
04:07AM 56.4206 -177.4947 64° Northeast 478 550 37,000  Level FlightAware Transoceanic
04:08AM 56.4792 -177.2721 65° Northeast 478 550 37,000  Level FlightAware Transoceanic
04:09AM 56.5374 -177.0488 65° Northeast 478 550 37,000  Level FlightAware Transoceanic
04:10AM 56.5952 -176.8248 65° Northeast 478 550 37,000  Level FlightAware Transoceanic
04:11AM 56.6526 -176.6002 65° Northeast 478 550 37,000  Level FlightAware Transoceanic
04:12AM 56.7007 -176.4156 65° Northeast 481 554 37,000  Level FlightAware Transoceanic
04:12AM 56.7167 -176.3000 65° Northeast 484 557 37,000  Level Anchorage Center
04:13AM 56.7577 -176.1880 66° East 481 554 37,000  Level FlightAware Transoceanic
04:14AM 56.8143 -175.9597 66° East 481 554 37,000  Level FlightAware Transoceanic
04:15AM 56.8705 -175.7307 66° East 481 554 37,000  Level FlightAware Transoceanic
04:16AM 56.9263 -175.5010 66° East 481 554 37,000  Level FlightAware Transoceanic
04:17AM 56.9816 -175.2707 66° East 481 554 37,000  Level FlightAware Transoceanic
04:18AM 57.0365 -175.0396 67° East 481 554 37,000  Level FlightAware Transoceanic
04:18AM 57.0333 -174.9667 67° East 480 552 37,000  Level Anchorage Center
04:19AM 57.0475 -174.9518 66° East 484 557 37,000  Level FlightAware Transoceanic
04:19AM 57.0833 -174.7333 68° East 480 552 37,000  Level Anchorage Center
04:20AM 57.1013 -174.7247 67° East 484 557 37,000  Level FlightAware Transoceanic
04:20AM 57.1333 -174.5167 67° East 480 552 37,000  Level Anchorage Center
04:21AM 57.1546 -174.4971 67° East 484 557 37,000  Level FlightAware Transoceanic
04:21AM 57.1833 -174.2833 68° East 490 564 37,000  Level Anchorage Center
04:22AM 57.2075 -174.2687 67° East 484 557 37,000  Level FlightAware Transoceanic
04:22AM 57.2500 -174.0333 64° Northeast 490 564 37,000  Level Anchorage Center
04:23AM 57.2600 -174.0397 67° East 484 557 37,000  Level FlightAware Transoceanic
04:23AM 57.3000 -173.8000 68° East 490 564 37,000  Level Anchorage Center
04:24AM 57.3120 -173.8101 67° East 484 557 37,000  Level FlightAware Transoceanic
04:24AM 57.3500 -173.5667 68° East 490 564 37,000  Level Anchorage Center
04:25AM 57.4000 -173.3333 68° East 490 564 37,000  Level Anchorage Center
04:26AM 57.4500 -173.1000 68° East 500 575 37,000  Level Anchorage Center
04:27AM 57.5000 -172.8667 68° East 490 564 37,000  Level Anchorage Center
04:28AM 57.5500 -172.6167 69° East 480 552 37,000  Level Anchorage Center
04:29AM 57.6167 -172.3833 62° Northeast 490 564 37,000  Level Anchorage Center
04:30AM 57.6667 -172.1333 69° East 490 564 37,000  Level Anchorage Center
04:31AM 57.7167 -171.9000 68° East 500 575 37,000  Level Anchorage Center
04:32AM 57.7667 -171.6500 69° East 500 575 37,000  Level Anchorage Center
04:33AM 57.8167 -171.4167 68° East 480 552 37,000  Level Anchorage Center
04:34AM 57.8667 -171.1667 69° East 500 575 37,000  Level Anchorage Center
04:35AM 57.9000 -170.9667 73° East 490 564 37,000  Level Anchorage Center
04:36AM 57.9500 -170.7167 69° East 490 564 37,000  Level Anchorage Center
04:37AM 57.9500 -170.4500 90° East 490 564 37,000  Level Anchorage Center
04:38AM 57.9667 -170.2000 83° East 500 575 37,000  Level Anchorage Center
04:39AM 57.9833 -169.9167 84° East 510 587 37,000  Level Anchorage Center
04:40AM 57.9833 -169.6500 90° East 500 575 37,000  Level Anchorage Center
04:41AM 58.0000 -169.3833 83° East 500 575 37,000  Level Anchorage Center
04:42AM 58.0000 -169.1167 90° East 500 575 37,000  Level Anchorage Center
04:43AM 58.0000 -168.8667 90° East 500 575 37,000  Level Anchorage Center
04:44AM 58.0167 -168.6000 83° East 500 575 37,000  Level Anchorage Center
04:45AM 58.0167 -168.3333 90° East 500 575 37,000  Level Anchorage Center
04:46AM 58.0333 -168.0667 83° East 500 575 37,000  Level Anchorage Center
04:47AM 58.0333 -167.8000 90° East 500 575 37,000  Level Anchorage Center
04:48AM 58.0333 -167.5333 90° East 500 575 37,000  Level Anchorage Center
04:49AM 58.0333 -167.2667 90° East 490 564 37,000  Level Anchorage Center
04:50AM 58.0500 -167.0000 83° East 500 575 37,000  Level Anchorage Center
04:51AM 58.0500 -166.7333 90° East 500 575 37,000  Level Anchorage Center
04:52AM 58.0500 -166.4500 90° East 510 587 37,000  Level Anchorage Center
04:53AM 58.0500 -166.1833 90° East 500 575 37,000  Level Anchorage Center
04:54AM 58.0500 -165.9167 90° East 510 587 37,000  Level Anchorage Center
04:55AM 58.0500 -165.7000 90° East 500 575 37,000  Level Anchorage Center
04:56AM 58.0500 -165.3833 90° East 510 587 37,000  Level Anchorage Center
04:57AM 58.0500 -165.1167 90° East 500 575 37,000  Level Anchorage Center
04:58AM 58.0667 -164.8500 83° East 500 575 37,000  Level Anchorage Center
04:59AM 58.0667 -164.5833 90° East 510 587 37,000  Level Anchorage Center
05:00AM 58.0667 -164.3000 90° East 510 587 37,000  Level Anchorage Center
05:01AM 58.0833 -164.0333 83° East 510 587 37,000  Level Anchorage Center
05:02AM 58.0833 -163.7667 90° East 500 575 37,000  Level Anchorage Center
05:03AM 58.0833 -163.5000 90° East 500 575 37,000  Level Anchorage Center
05:04AM 58.1000 -163.2333 83° East 510 587 37,000  Level Anchorage Center
05:05AM 58.1000 -162.9500 90° East 510 587 37,000  Level Anchorage Center
05:06AM 58.1000 -162.7000 90° East 500 575 37,000  Level Anchorage Center
05:07AM 58.1000 -162.4333 90° East 500 575 37,000  Level Anchorage Center
05:08AM 58.1000 -162.1667 90° East 500 575 37,000  Level Anchorage Center
05:09AM 58.1000 -161.9000 90° East 500 575 37,000  Level Anchorage Center
05:10AM 58.1000 -161.6333 90° East 500 575 37,000  Level Anchorage Center
05:11AM 58.1000 -161.3667 90° East 510 587 37,000  Level Anchorage Center
05:12AM 58.1000 -161.1000 90° East 500 575 37,000  Level Anchorage Center
05:13AM 58.1000 -160.8333 90° East 500 575 37,000  Level Anchorage Center
05:14AM 58.1000 -160.5667 90° East 510 587 37,000  Level Anchorage Center
05:15AM 58.1000 -160.2833 90° East 510 587 37,000  Level Anchorage Center
05:16AM 58.1000 -160.0167 90° East 500 575 37,000  Level Anchorage Center
05:17AM 58.0833 -159.7500 97° East 500 575 37,000  Level Anchorage Center
05:18AM 58.0833 -159.4833 90° East 500 575 37,000  Level Anchorage Center
05:19AM 58.0833 -159.2167 90° East 500 575 37,000  Level Anchorage Center
05:20AM 58.0667 -158.9500 97° East 510 587 37,000  Level Anchorage Center
05:21AM 58.0667 -158.6833 90° East 500 575 37,000  Level Anchorage Center
05:22AM 58.0667 -158.4167 90° East 500 575 37,000  Level Anchorage Center
05:23AM 58.0667 -158.1500 90° East 500 575 37,000  Level Anchorage Center
05:24AM 58.0500 -157.8833 97° East 500 575 37,000  Level Anchorage Center
05:25AM 58.0500 -157.6167 90° East 500 575 37,000  Level Anchorage Center
05:26AM 58.0333 -157.3500 97° East 500 575 37,000  Level Anchorage Center
05:27AM 58.0333 -157.0833 90° East 510 587 37,000  Level Anchorage Center
05:28AM 58.0167 -156.8167 97° East 510 587 37,000  Level Anchorage Center
05:29AM 58.0000 -156.5500 97° East 500 575 37,000  Level Anchorage Center
05:30AM 58.0000 -156.3000 90° East 500 575 37,000  Level Anchorage Center
05:31AM 57.9833 -156.0500 97° East 500 575 37,000  Level Anchorage Center
05:32AM 57.9667 -155.7833 97° East 500 575 37,000  Level Anchorage Center
05:33AM 57.9667 -155.5167 90° East 500 575 37,000  Level Anchorage Center
05:34AM 57.9500 -155.2667 97° East 500 575 37,000  Level Anchorage Center
05:35AM 57.9333 -155.0000 97° East 500 575 37,000  Level Anchorage Center
05:36AM 57.9167 -154.7167 96° East 500 575 37,000  Level Anchorage Center
05:37AM 57.9000 -154.4500 97° East 510 587 37,000  Level Anchorage Center
05:38AM 57.8833 -154.1833 97° East 500 575 37,000  Level Anchorage Center
05:39AM 57.8667 -153.9167 97° East 510 587 37,000  Level Anchorage Center
05:40AM 57.8500 -153.6500 97° East 500 575 37,000  Level Anchorage Center
05:41AM 57.8333 -153.4000 97° East 510 587 37,000  Level Anchorage Center
05:42AM 57.8167 -153.1333 97° East 500 575 37,000  Level Anchorage Center
05:43AM 57.8000 -152.8833 97° East 490 564 37,000  Level Anchorage Center
05:44AM 57.7833 -152.6167 97° East 500 575 37,000  Level Anchorage Center
05:45AM 57.7667 -152.3500 97° East 500 575 37,000  Level Anchorage Center
05:46AM 57.7667 -152.0833 90° East 510 587 37,000  Level Anchorage Center
05:47AM 57.7667 -151.8333 90° East 500 575 37,000  Level Anchorage Center
05:48AM 57.7500 -151.5667 97° East 500 575 37,000  Level Anchorage Center
05:50AM 57.7470 -151.3091 91° East  Level FlightAware Approximate
05:50AM 57.7500 -151.0000 91° East 500 575 37,000  Level Anchorage Center
05:51AM 57.7333 -150.7500 97° East 500 575 37,000  Level Anchorage Center
05:52AM 57.7333 -150.4833 90° East 490 564 37,000  Level Anchorage Center
05:53AM 57.7167 -150.2167 97° East 500 575 37,000  Level Anchorage Center
05:54AM 57.7167 -149.9500 90° East 510 587 37,000  Level Anchorage Center
05:56AM 57.7084 -149.6970 93° East  Level FlightAware Approximate
05:56AM 57.7000 -149.4333 93° East 510 587 37,000  Level Anchorage Center
05:57AM 57.6833 -149.1667 97° East 500 575 37,000  Level Anchorage Center
05:58AM 57.6667 -148.9000 97° East 510 587 37,000  Level Anchorage Center
05:59AM 57.6667 -148.6333 90° East 510 587 37,000  Level Anchorage Center
06:00AM 57.6500 -148.3667 97° East 510 587 37,000  Level Anchorage Center
06:01AM 57.6333 -148.1000 97° East 510 587 37,000  Level Anchorage Center
06:02AM 57.6333 -147.8333 90° East 510 587 37,000  Level Anchorage Center
06:03AM 57.6167 -147.5667 97° East 510 587 37,000  Level Anchorage Center
06:04AM 57.6000 -147.3000 97° East 510 587 37,000  Level Anchorage Center
06:05AM 57.5833 -147.0333 97° East 520 598 37,000  Level Anchorage Center
06:06AM 57.5667 -146.7667 97° East 510 587 37,000  Level Anchorage Center
06:07AM 57.5500 -146.5000 97° East 520 598 37,000  Level Anchorage Center
06:08AM 57.5333 -146.2333 97° East 520 598 37,000  Level Anchorage Center
06:09AM 57.5167 -145.9667 97° East 510 587 37,000  Level Anchorage Center
06:10AM 57.5000 -145.7000 97° East 510 587 37,000  Level Anchorage Center
06:11AM 57.4833 -145.4500 97° East 510 587 37,000  Level Anchorage Center
06:12AM 57.4667 -145.1833 97° East 510 587 37,000  Level Anchorage Center
06:13AM 57.4500 -144.9167 97° East 510 587 37,000  Level Anchorage Center
06:14AM 57.4333 -144.6500 97° East 510 587 37,000  Level Anchorage Center
06:15AM 57.4167 -144.3833 97° East 520 598 37,000  Level Anchorage Center
06:16AM 57.3833 -144.1167 103° East 520 598 37,000  Level Anchorage Center
06:17AM 57.3667 -143.8500 97° East 510 587 37,000  Level Anchorage Center
06:18AM 57.3500 -143.5833 96° East 520 598 37,000  Level Anchorage Center
06:19AM 57.3333 -143.3333 97° East 520 598 37,000  Level Anchorage Center
06:20AM 57.3000 -143.0667 103° East 520 598 37,000  Level Anchorage Center
06:21AM 57.2833 -142.7833 96° East 510 587 37,000  Level Anchorage Center
06:22AM 57.2500 -142.5333 104° East 500 575 37,000  Level Anchorage Center
06:23AM 57.2333 -142.2667 96° East 520 598 37,000  Level Anchorage Center
06:24AM 57.2000 -142.0000 103° East 520 598 37,000  Level Anchorage Center
06:25AM 57.1833 -141.7500 97° East 520 598 37,000  Level Anchorage Center
06:26AM 57.1500 -141.4833 103° East 510 587 37,000  Level Anchorage Center
06:27AM 57.1333 -141.2167 96° East 520 598 37,000  Level Anchorage Center
06:28AM 57.1000 -140.9500 103° East 520 598 37,000  Level Anchorage Center
06:29AM 57.0667 -140.7000 104° East 520 598 37,000  Level Anchorage Center
06:30AM 57.0500 -140.4333 96° East 530 610 37,000  Level Anchorage Center
06:31AM 57.0167 -140.1667 103° East 530 610 37,000  Level Anchorage Center
06:32AM 56.9833 -140.1000 133° Southeast 530 610 37,000  Level Vancouver Center
06:33AM 57.0000 -139.8167 84° East 530 610 37,000  Level Vancouver Center
06:34AM 56.9667 -139.5667 104° East 530 610 37,000  Level Vancouver Center
06:34AM 56.9833 -139.3667 81° East 530 610 37,000  Level Anchorage Center
06:35AM 56.9833 -139.1000 90° East 530 610 37,000  Level Anchorage Center
06:36AM 56.9667 -138.8333 96° East 530 610 37,000  Level Anchorage Center
06:37AM 56.9667 -138.5500 90° East 530 610 37,000  Level Anchorage Center
06:38AM 56.9500 -138.4667 110° East 540 621 37,000  Level Vancouver Center
06:39AM 56.9500 -138.1833 90° East 540 621 37,000  Level Vancouver Center
06:39AM 56.9500 -138.0167 90° East 520 598 37,000  Level Anchorage Center
06:40AM 56.9333 -137.7500 96° East 530 610 37,000  Level Anchorage Center
06:41AM 56.9333 -137.4667 90° East 530 610 37,000  Level Anchorage Center
06:42AM 56.9167 -137.3667 107° East 540 621 37,000  Level Vancouver Center
06:43AM 56.9167 -137.1167 90° East 540 621 37,000  Level Vancouver Center
06:43AM 56.9167 -136.9333 90° East 530 610 37,000  Level Anchorage Center
06:44AM 56.9000 -136.6667 96° East 530 610 37,000  Level Anchorage Center
06:45AM 56.8833 -136.3833 96° East 530 610 37,000  Level Anchorage Center
06:46AM 56.8833 -136.3167 90° East 540 621 37,000  Level Vancouver Center
06:46AM 56.8833 -136.1167 90° East 530 610 37,000  Level Anchorage Center
06:47AM 56.8667 -135.8500 96° East 530 610 37,000  Level Anchorage Center
06:48AM 56.8500 -135.5667 96° East 540 621 37,000  Level Anchorage Center
06:49AM 56.8167 -135.3167 104° East 540 621 37,000  Level Anchorage Center
06:50AM 56.7833 -135.1000 106° East 530 610 37,000  Level Anchorage Center
06:51AM 56.7500 -134.8333 103° East 530 610 37,000  Level Anchorage Center
06:52AM 56.7000 -134.5833 110° East 520 598 37,000  Level Anchorage Center
06:53AM 56.6667 -134.3333 104° East 530 610 37,000  Level Anchorage Center
06:54AM 56.6167 -134.0667 109° East 520 598 37,000  Level Anchorage Center
06:55AM 56.5833 -133.8167 104° East 520 598 37,000  Level Anchorage Center
06:56AM 56.5500 -133.5667 103° East 520 598 37,000  Level Anchorage Center
06:57AM 56.5000 -133.3167 110° East 520 598 37,000  Level Anchorage Center
06:59AM 56.4667 -133.0667 103° East 520 598 37,000  Level Anchorage Center
07:00AM 56.4500 -132.8000 96° East 530 610 37,000  Level Anchorage Center
07:00AM 56.4333 -132.5167 96° East 540 621 37,000  Level Anchorage Center
07:02AM 56.4333 -132.2500 90° East 540 621 37,000  Level Anchorage Center
07:02AM 56.4333 -132.1167 90° East 540 621 37,000  Level Vancouver Center
07:03AM 56.4167 -131.8500 96° East 540 621 37,000  Level Vancouver Center
07:04AM 56.4000 -131.7167 103° East 540 621 37,000  Level Anchorage Center
07:05AM 56.4000 -131.4000 90° East 540 621 37,000  Level Anchorage Center
07:06AM 56.3667 -131.0833 101° East 480 552 37,000  Level Vancouver Center
07:07AM 56.3667 -130.8500 90° East 550 633 37,000  Level Vancouver Center
07:08AM 56.3500 -130.5667 96° East 540 621 37,000  Level Vancouver Center
07:09AM 56.3333 -130.3000 96° East 540 621 37,000  Level Vancouver Center
07:10AM 56.3333 -130.0167 90° East 550 633 37,000  Level Vancouver Center
07:11AM 56.3167 -129.7500 96° East 550 633 37,000  Level Vancouver Center
07:12AM 56.2833 -129.5000 103° East 530 610 37,000  Level Vancouver Center
07:13AM 56.2667 -129.2000 96° East 570 656 37,000  Level Vancouver Center
07:14AM 56.2667 -128.9667 90° East 550 633 37,000  Level Vancouver Center
07:15AM 56.2333 -128.6500 101° East 550 633 37,000  Level Vancouver Center
07:16AM 56.2167 -128.4167 97° East 560 644 37,000  Level Vancouver Center
07:17AM 56.1833 -128.1167 101° East 540 621 37,000  Level Vancouver Center
07:18AM 56.1667 -127.8333 96° East 560 644 37,000  Level Vancouver Center
07:19AM 56.1500 -127.6000 97° East 540 621 37,000  Level Vancouver Center
07:20AM 56.1333 -127.3167 96° East 550 633 37,000  Level Vancouver Center
07:21AM 56.1000 -127.0500 103° East 550 633 37,000  Level Vancouver Center
07:22AM 56.1000 -126.7833 90° East 540 621 37,000  Level Vancouver Center
07:23AM 56.0667 -126.5167 103° East 550 633 37,000  Level Vancouver Center
07:24AM 56.0333 -126.2500 103° East 540 621 37,000  Level Vancouver Center
07:25AM 56.0167 -125.9667 96° East 540 621 37,000  Level Vancouver Center
07:26AM 56.0000 -125.7000 96° East 540 621 37,000  Level Vancouver Center
07:27AM 55.9667 -125.4667 104° East 540 621 37,000  Level Vancouver Center
07:28AM 55.9333 -125.2000 102° East 540 621 37,000  Level Vancouver Center
07:29AM 55.9167 -124.9333 96° East 540 621 37,000  Level Vancouver Center
07:30AM 55.9000 -124.6500 96° East 540 621 37,000  Level Vancouver Center
07:31AM 55.8333 -124.5000 128° Southeast 530 610 37,000  Level Edmonton Center
07:32AM 55.8167 -124.2333 96° East 530 610 37,000  Level Edmonton Center
07:33AM 55.7833 -123.9667 102° East 530 610 37,000  Level Edmonton Center
07:34AM 55.7500 -123.7000 102° East 530 610 37,000  Level Edmonton Center
07:35AM 55.7333 -123.4500 97° East 530 610 37,000  Level Edmonton Center
07:36AM 55.7000 -123.1833 102° East 530 610 37,000  Level Edmonton Center
07:37AM 55.6833 -122.9500 97° East 530 610 37,000  Level Edmonton Center
07:38AM 55.6333 -122.6833 108° East 530 610 37,000  Level Edmonton Center
07:39AM 55.6000 -122.4167 102° East 530 610 37,000  Level Edmonton Center
07:40AM 55.5667 -122.1667 103° East 530 610 37,000  Level Edmonton Center
07:41AM 55.5333 -121.9000 102° East 530 610 37,000  Level Edmonton Center
07:42AM 55.5167 -121.6500 97° East 530 610 37,000  Level Edmonton Center
07:43AM 55.4833 -121.3833 102° East 530 610 37,000  Level Edmonton Center
07:44AM 55.4333 -121.1500 111° Southeast 530 610 37,000  Level Edmonton Center
07:45AM 55.4167 -120.8667 96° East 530 610 37,000  Level Edmonton Center
07:46AM 55.3667 -120.6333 111° Southeast 530 610 37,000  Level Edmonton Center
07:47AM 55.3333 -120.3833 103° East 530 610 37,000  Level Edmonton Center
07:48AM 55.3000 -120.1167 102° East 530 610 37,000  Level Edmonton Center
07:49AM 55.2667 -119.8667 103° East 530 610 37,000  Level Edmonton Center
07:50AM 55.2333 -119.6000 102° East 520 598 37,000  Level Edmonton Center
07:51AM 55.1833 -119.3500 109° East 520 598 37,000  Level Edmonton Center
07:52AM 55.1167 -118.9667 107° East 520 598 37,000  Level Edmonton Center
07:54AM 54.9833 -118.5167 117° Southeast 520 598 37,000  Level Edmonton Center
07:55AM 54.9167 -118.3167 120° Southeast 520 598 37,000  Level Edmonton Center
07:56AM 54.8333 -118.0833 122° Southeast 510 587 37,000  Level Edmonton Center
08:02AM 54.5320 -116.7630 122° Southeast 517 595 37,000  Level FlightAware
08:03AM 54.4920 -116.6040 113° Southeast 516 594 37,000  Level FlightAware
08:03AM 54.4640 -116.4850 112° Southeast 516 594 37,000  Level FlightAware
08:04AM 54.4120 -116.2880 114° Southeast 518 596 37,000  Level FlightAware
08:05AM 54.3710 -116.1300 114° Southeast 518 596 37,000  Level FlightAware
08:05AM 54.3390 -116.0000 113° Southeast 518 596 37,000  Level FlightAware
08:06AM 54.2930 -115.8290 115° Southeast 518 596 37,000  Level FlightAware
08:07AM 54.2360 -115.6110 114° Southeast 517 595 37,000  Level FlightAware
08:08AM 54.1960 -115.4620 115° Southeast 516 594 37,000  Level FlightAware
08:09AM 54.1170 -115.1660 114° Southeast 512 589 37,000  Level FlightAware
08:10AM 54.0470 -114.9060 115° Southeast 511 588 37,000  Level FlightAware
08:11AM 53.9790 -114.6600 115° Southeast 510 587 37,000  Level FlightAware
08:13AM 53.9060 -114.3940 115° Southeast 509 586 37,000  Level FlightAware
08:14AM 53.8350 -114.1410 115° Southeast 509 586 37,000  Level FlightAware
08:15AM 53.7890 -113.9780 115° Southeast 508 585 37,000  Level FlightAware
08:15AM 53.7480 -113.8320 115° Southeast 507 583 37,000  Level FlightAware
08:16AM 53.7040 -113.6780 116° Southeast 506 582 37,000  Level FlightAware
08:17AM 53.6610 -113.5310 116° Southeast 508 585 37,000  Level FlightAware
08:17AM 53.6200 -113.3890 116° Southeast 507 583 37,000  Level FlightAware
08:18AM 53.5740 -113.2300 116° Southeast 505 581 37,000  Level FlightAware
08:19AM 53.5320 -113.0860 116° Southeast 504 580 37,000  Level FlightAware
08:19AM 53.4860 -112.9320 117° Southeast 504 580 37,000  Level FlightAware
08:20AM 53.4440 -112.7900 116° Southeast 503 579 37,000  Level FlightAware
08:21AM 53.4020 -112.6480 116° Southeast 502 578 37,000  Level FlightAware
08:22AM 53.3550 -112.4940 117° Southeast 501 577 37,000  Level FlightAware
08:22AM 53.3130 -112.3550 117° Southeast 502 578 37,000  Level FlightAware
08:23AM 53.2660 -112.2020 117° Southeast 501 577 37,000  Level FlightAware
08:24AM 53.2230 -112.0610 117° Southeast 500 575 37,000  Level FlightAware
08:24AM 53.1820 -111.9260 117° Southeast 500 575 37,000 540 Level FlightAware
08:25AM 53.1350 -111.7770 118° Southeast 498 573 37,800 1,080 Climbing FlightAware
08:26AM 53.0920 -111.6370 117° Southeast 495 570 38,600 840 Climbing FlightAware
08:26AM 53.0440 -111.4850 118° Southeast 494 568 39,000 240 Climbing FlightAware
08:27AM 53.0020 -111.3530 118° Southeast 494 568 39,000  Level FlightAware
08:28AM 52.9600 -111.2200 118° Southeast 489 563 39,000  Level FlightAware
08:28AM 52.9190 -111.0920 118° Southeast 492 566 39,000  Level FlightAware
08:29AM 52.8690 -110.9350 118° Southeast 488 562 39,000  Level FlightAware
08:30AM 52.8300 -110.8120 118° Southeast 489 563 39,000  Level FlightAware
08:31AM 52.7780 -110.6550 119° Southeast 488 562 39,000  Level FlightAware
08:31AM 52.7340 -110.5180 118° Southeast 488 562 39,000  Level FlightAware
08:32AM 52.7000 -110.4100 117° Southeast 488 562 39,000  Level FlightAware
08:33AM 52.6650 -110.2970 117° Southeast 488 562 39,000  Level FlightAware
08:33AM 52.6220 -110.1560 117° Southeast 488 562 39,000  Level FlightAware
08:34AM 52.5870 -110.0440 117° Southeast 488 562 39,000  Level FlightAware
08:35AM 52.5520 -109.9310 117° Southeast 488 562 39,000  Level FlightAware
08:35AM 52.4500 -109.7833 117° Southeast 480 552 39,000  Level Winnipeg Center
08:36AM 52.3833 -109.5667 117° Southeast 480 552 39,000  Level Winnipeg Center
08:37AM 52.3167 -109.3833 121° Southeast 480 552 39,000  Level Winnipeg Center
08:38AM 52.2500 -109.2000 121° Southeast 480 552 39,000  Level Winnipeg Center
08:39AM 52.2000 -108.9833 111° Southeast 470 541 39,000  Level Edmonton Center
08:40AM 52.1333 -108.8333 126° Southeast 480 552 39,000  Level Winnipeg Center
08:41AM 52.0667 -108.6333 118° Southeast 480 552 39,000  Level Winnipeg Center
08:48AM 51.7080 -107.5700 118° Southeast 476 548 39,000  Level FlightAware
08:49AM 51.6690 -107.4620 120° Southeast 476 548 39,000  Level FlightAware
08:50AM 51.5490 -107.1410 121° Southeast 475 547 39,000  Level FlightAware
08:51AM 51.5040 -107.0210 121° Southeast 475 547 39,000  Level FlightAware
08:51AM 51.4520 -106.8830 121° Southeast 474 545 39,000  Level FlightAware
08:52AM 51.4060 -106.7630 122° Southeast 474 545 39,000  Level FlightAware
08:53AM 51.3650 -106.6550 121° Southeast 474 545 39,000  Level FlightAware
08:53AM 51.3160 -106.5270 121° Southeast 473 544 39,000  Level FlightAware
08:54AM 51.2570 -106.3740 122° Southeast 474 545 39,000  Level FlightAware
08:55AM 51.2020 -106.2310 122° Southeast 476 548 39,000  Level FlightAware
08:56AM 51.1620 -106.1300 122° Southeast 476 548 39,000  Level FlightAware
08:56AM 51.1120 -106.0020 122° Southeast 477 549 39,000  Level FlightAware
08:57AM 51.0550 -105.8560 122° Southeast 478 550 39,000  Level FlightAware
08:58AM 51.0100 -105.7420 122° Southeast 478 550 39,000  Level FlightAware
08:58AM 50.9630 -105.6230 122° Southeast 478 550 39,000  Level FlightAware
08:59AM 50.9140 -105.5020 123° Southeast 477 549 39,000  Level FlightAware
09:00AM 50.8700 -105.3900 122° Southeast 477 549 39,000  Level FlightAware
09:01AM 50.8120 -105.2460 122° Southeast 476 548 39,000  Level FlightAware
09:01AM 50.7730 -105.1490 122° Southeast 475 547 39,000  Level FlightAware
09:02AM 50.7260 -105.0340 123° Southeast 476 548 39,000  Level FlightAware
09:03AM 50.6730 -104.9090 124° Southeast 475 547 39,000  Level FlightAware
09:03AM 50.6290 -104.8290 131° Southeast 476 548 39,000  Level FlightAware
09:04AM 50.5820 -104.7520 134° Southeast 475 547 39,000  Level FlightAware
09:05AM 50.5040 -104.6290 135° Southeast 475 547 39,000  Level FlightAware
09:05AM 50.4420 -104.5300 134° Southeast 475 547 39,000  Level FlightAware
09:06AM 50.3630 -104.4050 135° Southeast 475 547 39,000  Level FlightAware
09:07AM 50.3030 -104.3100 135° Southeast 475 547 39,000  Level FlightAware
09:07AM 50.2440 -104.2180 135° Southeast 474 545 39,000  Level FlightAware
09:08AM 50.1760 -104.1120 135° Southeast 473 544 39,000  Level FlightAware
09:09AM 50.1010 -103.9940 135° Southeast 471 542 39,000  Level FlightAware
09:10AM 50.0250 -103.8770 135° Southeast 471 542 39,000  Level FlightAware
09:10AM 49.9720 -103.7950 135° Southeast 472 543 39,000  Level FlightAware
09:11AM 49.9230 -103.7180 135° Southeast 471 542 39,000  Level FlightAware
09:12AM 49.8600 -103.6220 135° Southeast 471 542 39,000  Level FlightAware
09:12AM 49.8080 -103.5410 135° Southeast 471 542 39,000  Level FlightAware
09:13AM 49.7550 -103.4590 135° Southeast 471 542 39,000  Level FlightAware
09:14AM 49.5650 -103.1750 136° Southeast 466 536 39,000  Level FlightAware
09:15AM 49.4940 -103.0690 136° Southeast 463 533 39,000  Level FlightAware
09:15AM 49.4230 -102.9610 135° Southeast 463 533 39,000  Level FlightAware
09:16AM 49.3350 -102.8320 136° Southeast 460 529 39,000  Level FlightAware
09:17AM 49.2590 -102.7190 136° Southeast 458 527 39,000  Level FlightAware
09:18AM 49.1970 -102.6280 136° Southeast 458 527 39,000  Level FlightAware
09:19AM 49.1300 -102.5300 136° Southeast 458 527 39,000  Level FlightAware
09:19AM 49.0680 -102.4390 136° Southeast 457 526 39,000  Level FlightAware
09:20AM 49.0110 -102.3560 136° Southeast 458 527 39,000  Level FlightAware
09:21AM 48.9600 -102.2800 136° Southeast 458 527 39,000  Level FlightAware
09:21AM 48.9080 -102.2030 136° Southeast 458 527 39,000  Level FlightAware
09:22AM 48.8430 -102.1080 136° Southeast 458 527 39,000  Level FlightAware
09:23AM 48.8160 -101.9050 101° East 447 514 39,000  Level FlightAware
09:23AM 48.7860 -101.8200 118° Southeast 447 514 39,000  Level FlightAware
09:24AM 48.7450 -101.7020 118° Southeast 447 514 39,000  Level FlightAware
09:25AM 48.7120 -101.6080 118° Southeast 447 514 39,000  Level FlightAware
09:25AM 48.6790 -101.5140 118° Southeast 447 514 39,000  Level FlightAware
09:26AM 48.6000 -101.3040 120° Southeast 447 514 39,000  Level FlightAware
09:27AM 48.5540 -101.1790 119° Southeast 448 516 39,000  Level FlightAware
09:28AM 48.5240 -101.0930 118° Southeast 448 516 39,000  Level FlightAware
09:29AM 48.4690 -100.9460 119° Southeast 448 516 39,000  Level FlightAware
09:29AM 48.4270 -100.8320 119° Southeast 447 514 39,000  Level FlightAware
09:30AM 48.3830 -100.7140 119° Southeast 446 513 39,000  Level FlightAware
09:31AM 48.3440 -100.6100 119° Southeast 446 513 39,000  Level FlightAware
09:31AM 48.2980 -100.4870 119° Southeast 446 513 39,000  Level FlightAware
09:32AM 48.2560 -100.3750 119° Southeast 445 512 39,000  Level FlightAware
09:33AM 48.2160 -100.2680 119° Southeast 445 512 39,000  Level FlightAware
09:33AM 48.1710 -100.1520 120° Southeast 443 510 39,000  Level FlightAware
09:34AM 48.1310 -100.0440 119° Southeast 442 509 39,000  Level FlightAware
09:35AM 48.0900 -99.9380 120° Southeast 442 509 39,000  Level FlightAware
09:36AM 48.0450 -99.8200 120° Southeast 442 509 39,000  Level FlightAware
09:36AM 48.0030 -99.7110 120° Southeast 443 510 39,000  Level FlightAware
09:37AM 47.9570 -99.5940 120° Southeast 443 510 39,000  Level FlightAware
09:38AM 47.9160 -99.4880 120° Southeast 442 509 39,000  Level FlightAware
09:38AM 47.8750 -99.3830 120° Southeast 441 507 39,000  Level FlightAware
09:39AM 47.8280 -99.2630 120° Southeast 443 510 39,000  Level FlightAware
09:40AM 47.7880 -99.1590 120° Southeast 445 512 39,000  Level FlightAware
09:40AM 47.7420 -99.0450 121° Southeast 447 514 39,000  Level FlightAware
09:41AM 47.6990 -98.9360 120° Southeast 449 517 39,000  Level FlightAware
09:42AM 47.6570 -98.8310 121° Southeast 451 519 39,000  Level FlightAware
09:43AM 47.6080 -98.7080 121° Southeast 453 521 39,000  Level FlightAware
09:43AM 47.5660 -98.6030 121° Southeast 454 522 39,000  Level FlightAware
09:44AM 47.5190 -98.4860 121° Southeast 455 524 39,000  Level FlightAware
09:45AM 47.4750 -98.3780 121° Southeast 455 524 39,000  Level FlightAware
09:45AM 47.4260 -98.2570 121° Southeast 456 525 39,000  Level FlightAware
09:46AM 47.3840 -98.1550 121° Southeast 455 524 39,000  Level FlightAware
09:47AM 47.3460 -98.0620 121° Southeast 456 525 39,000  Level FlightAware
09:47AM 47.2910 -97.9280 121° Southeast 456 525 39,000  Level FlightAware
09:48AM 47.2460 -97.8200 122° Southeast 456 525 39,000  Level FlightAware
09:49AM 47.2060 -97.7240 121° Southeast 455 524 39,000  Level FlightAware
09:50AM 47.1520 -97.5940 121° Southeast 454 522 39,000  Level FlightAware
09:50AM 47.1080 -97.4880 121° Southeast 455 524 39,000  Level FlightAware
09:51AM 47.0640 -97.3830 122° Southeast 454 522 39,000  Level FlightAware
09:52AM 47.0190 -97.2760 122° Southeast 453 521 39,000  Level FlightAware
09:52AM 46.9780 -97.1810 122° Southeast 452 520 39,000  Level FlightAware
09:53AM 46.9220 -97.0470 121° Southeast 451 519 39,000  Level FlightAware
09:54AM 46.8780 -96.9440 122° Southeast 452 520 39,000  Level FlightAware
09:54AM 46.8300 -96.8310 122° Southeast 454 522 39,000  Level FlightAware
09:55AM 46.7770 -96.7100 123° Southeast 456 525 39,000  Level FlightAware
09:56AM 46.7320 -96.6050 122° Southeast 454 522 39,000  Level FlightAware
09:57AM 46.6870 -96.5010 122° Southeast 453 521 39,000  Level FlightAware
09:57AM 46.6390 -96.3920 123° Southeast 453 521 39,000  Level FlightAware
09:58AM 46.5930 -96.2860 122° Southeast 456 525 39,000  Level FlightAware
09:59AM 46.5410 -96.1680 123° Southeast 459 528 39,000  Level FlightAware
09:59AM 46.4950 -96.0640 123° Southeast 461 531 39,000  Level FlightAware
10:00AM 46.4500 -95.9610 122° Southeast 463 533 39,000  Level FlightAware
10:01AM 46.3980 -95.8440 123° Southeast 466 536 39,000  Level FlightAware
10:01AM 46.3510 -95.7400 123° Southeast 466 536 39,000  Level FlightAware
10:02AM 46.2970 -95.6190 123° Southeast 467 537 39,000  Level FlightAware
10:03AM 46.2500 -95.5150 123° Southeast 466 536 39,000  Level FlightAware
10:04AM 46.2030 -95.4100 123° Southeast 464 534 39,000  Level FlightAware
10:04AM 46.1520 -95.2960 123° Southeast 464 534 39,000  Level FlightAware
10:05AM 46.1110 -95.2070 124° Southeast 463 533 39,000  Level FlightAware
10:06AM 46.0510 -95.0750 123° Southeast 463 533 39,000  Level FlightAware
10:06AM 46.0030 -94.9710 124° Southeast 463 533 39,000  Level FlightAware
10:07AM 45.9570 -94.8710 123° Southeast 462 532 39,000  Level FlightAware
10:08AM 45.9040 -94.7570 124° Southeast 463 533 39,000  Level FlightAware
10:08AM 45.8580 -94.6570 123° Southeast 463 533 39,000  Level FlightAware
10:09AM 45.8030 -94.5380 124° Southeast 463 533 39,000  Level FlightAware
10:10AM 45.7550 -94.4360 124° Southeast 463 533 39,000  Level FlightAware
10:11AM 45.7080 -94.3350 124° Southeast 462 532 39,000  Level FlightAware
10:11AM 45.6560 -94.2240 124° Southeast 462 532 39,000  Level FlightAware
10:12AM 45.6080 -94.1240 124° Southeast 461 531 39,000  Level FlightAware
10:13AM 45.5530 -94.0060 124° Southeast 462 532 39,000  Level FlightAware
10:13AM 45.5050 -93.9070 125° Southeast 462 532 39,000  Level FlightAware
10:14AM 45.4580 -93.8070 124° Southeast 461 531 39,000  Level FlightAware
10:15AM 45.4040 -93.6950 124° Southeast 462 532 39,000  Level FlightAware
10:15AM 45.3570 -93.5970 124° Southeast 462 532 39,000  Level FlightAware
10:16AM 45.3080 -93.4950 124° Southeast 461 531 39,000  Level FlightAware
10:17AM 45.2520 -93.3800 125° Southeast 462 532 39,000  Level FlightAware
10:18AM 45.2040 -93.2820 125° Southeast 462 532 39,000  Level FlightAware
10:18AM 45.1550 -93.1820 125° Southeast 460 529 39,000  Level FlightAware
10:19AM 45.1030 -93.0760 125° Southeast 460 529 39,000  Level FlightAware
10:20AM 45.0610 -92.9900 125° Southeast 459 528 39,000  Level FlightAware
10:20AM 44.9990 -92.8630 125° Southeast 458 527 39,000  Level FlightAware
10:21AM 44.9330 -92.7310 125° Southeast 455 524 39,000  Level FlightAware
10:22AM 44.8850 -92.6350 125° Southeast 455 524 39,000  Level FlightAware
10:23AM 44.8300 -92.5250 125° Southeast 455 524 39,000  Level FlightAware
10:23AM 44.7810 -92.4260 125° Southeast 456 525 39,000  Level FlightAware
10:24AM 44.7270 -92.3200 126° Southeast 456 525 39,000  Level FlightAware
10:25AM 44.6780 -92.2230 125° Southeast 457 526 39,000  Level FlightAware
10:25AM 44.6400 -92.1470 125° Southeast 458 527 39,000  Level FlightAware
10:26AM 44.5730 -92.0160 126° Southeast 459 528 39,000  Level FlightAware
10:27AM 44.5240 -91.9190 125° Southeast 460 529 39,000  Level FlightAware
10:28AM 44.4740 -91.8210 126° Southeast 461 531 39,000  Level FlightAware
10:28AM 44.4180 -91.7130 126° Southeast 461 531 39,000  Level FlightAware
10:29AM 44.3710 -91.6230 126° Southeast 460 529 39,000 -120 Level FlightAware
10:30AM 44.3120 -91.5080 126° Southeast 453 521 38,900 -180 Descending FlightAware
10:30AM 44.2640 -91.4150 126° Southeast 439 505 38,800 -1,020 Descending FlightAware
10:31AM 44.2110 -91.3140 126° Southeast 448 516 37,500 -1,680 Descending FlightAware
10:32AM 44.1620 -91.2190 126° Southeast 450 518 36,500 -1,440 Descending FlightAware
10:32AM 44.1130 -91.1270 127° Southeast 452 520 35,600 -1,440 Descending FlightAware
10:33AM 44.0570 -91.0200 126° Southeast 453 521 34,500 -1,860 Descending FlightAware
10:34AM 44.0070 -90.9260 126° Southeast 445 512 33,000 -2,280 Descending FlightAware
10:35AM 43.9530 -90.8240 126° Southeast 445 512 31,300 -1,440 Descending FlightAware
10:35AM 43.9040 -90.7320 126° Southeast 445 512 31,000 -240 Descending FlightAware
10:36AM 43.8480 -90.6270 126° Southeast 449 517 31,000  Level FlightAware
10:37AM 43.7990 -90.5350 126° Southeast 451 519 31,000  Level FlightAware
10:37AM 43.7490 -90.4410 126° Southeast 451 519 31,000 -420 Level FlightAware
10:38AM 43.7020 -90.3540 127° Southeast 447 514 30,500 -900 Descending FlightAware
10:39AM 43.6460 -90.2510 127° Southeast 440 506 29,800 -1,020 Descending FlightAware
10:39AM 43.5970 -90.1610 127° Southeast 435 501 29,100 -960 Descending FlightAware
10:40AM 43.5450 -90.0640 126° Southeast 430 495 28,500 -900 Descending FlightAware
10:41AM 43.4980 -89.9780 127° Southeast 426 490 27,900 -900 Descending FlightAware
10:42AM 43.4510 -89.8920 127° Southeast 423 487 27,300 -1,020 Descending FlightAware
10:42AM 43.3960 -89.7930 127° Southeast 421 484 26,500 -1,080 Descending FlightAware
10:43AM 43.3490 -89.7070 127° Southeast 419 482 25,800 -1,380 Descending FlightAware
10:44AM 43.2970 -89.6130 127° Southeast 411 473 24,600 -1,860 Descending FlightAware
10:44AM 43.2500 -89.5280 127° Southeast 404 465 23,200 -2,040 Descending FlightAware
10:45AM 43.2070 -89.4510 127° Southeast 397 457 21,900 -1,980 Descending FlightAware
10:46AM 43.1540 -89.3610 129° Southeast 389 448 20,400 -1,920 Descending FlightAware
10:46AM 43.0970 -89.3030 143° Southeast 381 438 19,200 -1,920 Descending FlightAware
10:47AM 43.0460 -89.2400 138° Southeast 376 433 17,900 -1,920 Descending FlightAware
10:48AM 42.9850 -89.1700 140° Southeast 370 426 16,500 -1,800 Descending FlightAware
10:49AM 42.9330 -89.1130 141° Southeast 359 413 15,400 -1,740 Descending FlightAware
10:49AM 42.8770 -89.0510 141° Southeast 350 403 14,100 -1,680 Descending FlightAware
10:50AM 42.8320 -89.0020 141° Southeast 340 391 13,200 -900 Descending FlightAware
10:51AM 42.7720 -88.9350 141° Southeast 339 390 12,900 -240 Descending FlightAware
10:51AM 42.7240 -88.8820 141° Southeast 339 390 12,900 -420 Level FlightAware
10:52AM 42.6740 -88.8270 141° Southeast 330 380 12,400 -1,080 Descending FlightAware
10:53AM 42.6250 -88.7730 141° Southeast 323 372 11,400 -1,440 Descending FlightAware
10:53AM 42.5770 -88.7210 141° Southeast 315 362 10,400 -1,080 Descending FlightAware
10:54AM 42.5280 -88.6660 140° Southeast 290 334 9,900 -720 Descending FlightAware
10:55AM 42.5030 -88.6390 141° Southeast 283 326 9,600 -960 Descending FlightAware
10:55AM 42.4760 -88.6100 142° Southeast 278 320 9,100 -1,080 Descending FlightAware
10:55AM 42.4620 -88.5950 142° Southeast 278 320 8,900 -300 Descending FlightAware
10:56AM 42.4320 -88.5620 141° Southeast 276 318 8,900  Level FlightAware
10:56AM 42.4010 -88.5270 140° Southeast 279 321 8,900  Level FlightAware
10:56AM 42.3930 -88.5190 144° Southeast 279 321 8,900  Level FlightAware
10:57AM 42.3750 -88.5050 150° Southeast 280 322 8,900 -180 Level FlightAware
10:57AM 42.3380 -88.4850 158° South 281 323 8,800 -780 Descending FlightAware
10:58AM 42.3090 -88.4710 160° South 279 321 8,200 -1,560 Descending FlightAware
10:58AM 42.2700 -88.4520 160° South 281 323 7,400 -1,440 Descending FlightAware
10:59AM 42.2360 -88.4350 160° South 280 322 6,800 -1,320 Descending FlightAware
10:59AM 42.2050 -88.4190 159° South 277 319 6,200 -1,020 Descending FlightAware
11:00AM 42.1690 -88.4010 160° South 278 320 5,900 -600 Descending FlightAware
11:00AM 42.1400 -88.3820 154° Southeast 272 313 5,700 -900 Descending FlightAware
11:00AM 42.1060 -88.3570 151° Southeast 270 311 5,100 -840 Descending FlightAware
11:01AM 42.0730 -88.3370 156° South 271 312 4,900 -240 Descending FlightAware
11:01AM 42.0450 -88.3160 151° Southeast 258 297 4,900  Level FlightAware
11:02AM 42.0160 -88.2940 151° Southeast 248 285 4,900  Level FlightAware
11:02AM 42.0010 -88.2830 151° Southeast 239 275 4,900  Level FlightAware
11:03AM 41.9790 -88.2630 146° Southeast 204 235 4,900  Level FlightAware
11:03AM 41.9730 -88.2480 118° Southeast 188 216 4,900 -300 Level FlightAware
11:03AM 41.9680 -88.2140 101° East 186 214 4,700 -900 Descending FlightAware
11:04AM 41.9680 -88.1490 90° East 184 212 3,700 -1,080 Descending FlightAware
11:05AM 41.9680 -88.1290 90° East 181 208 3,400 -960 Descending FlightAware
11:05AM 41.9690 -88.0930 88° East 178 205 2,900 -960 Descending FlightAware
11:06AM 41.9690 -88.0570 90° East 173 199 2,400 -840 Descending FlightAware
11:06AM 41.9690 -88.0260 90° East 153 176 2,000 -840 Descending FlightAware
11:06AM 41.9690 -88.0090 90° East 149 171 1,700 -780 Descending FlightAware
11:07AM 41.9690 -87.9780 90° East 134 154 1,300 -720 Descending FlightAware
11:07AM 41.9690 -87.9580 90° East 134 154 1,000 -780 Descending FlightAware
11:08AM 41.9690 -87.9320 90° East 135 155 600 -480 Descending FlightAware
11:09AM 41.9690 -87.9020 90° East 131 151 500 -180 Descending FlightAware